createdAt,value
2022-10-11T00:01:46.821Z,8.82
2022-10-11T00:04:14.066Z,10.05
2022-10-11T00:06:43.520Z,12.32
2022-10-11T00:09:15.951Z,7.22
2022-10-11T00:11:43.668Z,9.63
2022-10-11T00:14:10.887Z,10.90
2022-10-11T00:16:40.885Z,7.57
2022-10-11T00:19:08.127Z,14.65
2022-10-11T00:21:36.634Z,10.57
2022-10-11T00:24:04.401Z,9.70
2022-10-11T00:26:31.609Z,9.07
2022-10-11T00:28:58.834Z,9.65
2022-10-11T00:31:26.112Z,10.82
2022-10-11T00:33:54.495Z,8.38
2022-10-11T00:36:22.692Z,9.23
2022-10-11T00:38:50.092Z,13.23
2022-10-11T00:41:17.780Z,8.07
2022-10-11T00:43:45.392Z,10.00
2022-10-11T00:46:12.574Z,10.75
2022-10-11T00:48:48.589Z,11.13
2022-10-11T00:51:15.870Z,17.75
2022-10-11T00:53:43.226Z,8.23
2022-10-11T00:56:31.167Z,9.68
2022-10-11T00:58:58.933Z,12.57
2022-10-11T01:01:26.409Z,35.40
2022-10-11T01:03:53.752Z,56.53
2022-10-11T01:06:21.316Z,36.10
2022-10-11T01:08:49.103Z,56.40
2022-10-11T01:11:17.971Z,46.17
2022-10-11T01:13:52.932Z,9.15
2022-10-11T01:16:23.233Z,5.90
2022-10-11T01:18:58.476Z,7.22
2022-10-11T01:21:28.568Z,7.32
2022-10-11T01:24:11.027Z,7.60
2022-10-11T01:26:54.690Z,13.50
2022-10-11T01:29:21.893Z,5.78
2022-10-11T01:31:56.549Z,10.25
2022-10-11T01:34:34.052Z,16.23
2022-10-11T01:37:06.460Z,9.35
2022-10-11T01:39:39.012Z,10.02
2022-10-11T01:42:09.716Z,10.07
2022-10-11T01:44:37.479Z,14.32
2022-10-11T01:47:05.083Z,6.55
2022-10-11T01:49:32.368Z,10.80
2022-10-11T01:52:01.530Z,5.97
2022-10-11T01:55:08.783Z,12.70
2022-10-11T01:57:53.856Z,6.25
2022-10-11T02:00:22.319Z,9.73
2022-10-11T02:02:54.061Z,10.25
2022-10-11T02:05:43.996Z,14.88
2022-10-11T02:08:26.996Z,8.73
2022-10-11T02:11:06.458Z,9.48
2022-10-11T02:13:37.160Z,13.52
2022-10-11T02:16:07.201Z,12.75
2022-10-11T02:18:37.018Z,7.80
2022-10-11T02:21:05.650Z,7.63
2022-10-11T02:23:39.968Z,7.07
2022-10-11T02:26:07.769Z,8.23
2022-10-11T02:28:37.025Z,8.80
2022-10-11T02:31:06.629Z,7.72
2022-10-11T02:33:37.951Z,7.72
2022-10-11T02:36:08.657Z,8.60
2022-10-11T02:38:38.945Z,8.10
2022-10-11T02:41:26.413Z,17.27
2022-10-11T02:43:58.194Z,16.33
2022-10-11T02:46:26.006Z,9.68
2022-10-11T02:48:53.463Z,7.10
2022-10-11T02:51:20.658Z,7.82
2022-10-11T02:53:47.847Z,10.55
2022-10-11T02:56:15.071Z,21.92
2022-10-11T02:58:42.297Z,9.07
2022-10-11T03:01:09.563Z,16.52
2022-10-11T03:03:36.870Z,14.73
2022-10-11T03:06:04.702Z,12.90
2022-10-11T03:08:32.177Z,11.90
2022-10-11T03:10:59.828Z,10.75
2022-10-11T03:13:27.067Z,16.88
2022-10-11T03:16:02.825Z,15.82
2022-10-11T03:18:31.240Z,12.68
2022-10-11T03:20:58.631Z,16.45
2022-10-11T03:23:26.237Z,8.43
2022-10-11T03:25:53.399Z,6.15
2022-10-11T03:28:21.115Z,10.68
2022-10-11T03:30:51.355Z,10.93
2022-10-11T03:33:18.618Z,8.65
2022-10-11T03:35:46.524Z,11.30
2022-10-11T03:38:14.737Z,12.55
2022-10-11T03:40:42.394Z,6.75
2022-10-11T03:43:09.670Z,8.82
2022-10-11T03:45:37.255Z,7.32
2022-10-11T03:48:04.538Z,11.02
2022-10-11T03:50:31.754Z,7.40
2022-10-11T03:52:59.001Z,9.50
2022-10-11T03:55:26.194Z,9.55
2022-10-11T03:57:53.418Z,6.97
2022-10-11T04:00:20.770Z,7.15
2022-10-11T04:02:48.009Z,7.00
2022-10-11T04:05:15.329Z,7.13
2022-10-11T04:07:42.648Z,7.80
2022-10-11T04:10:09.954Z,8.18
2022-10-11T04:12:38.633Z,7.93
2022-10-11T04:15:06.616Z,9.07
2022-10-11T04:17:33.843Z,9.32
2022-10-11T04:20:01.034Z,10.20
2022-10-11T04:22:28.291Z,7.45
2022-10-11T04:24:55.507Z,7.43
2022-10-11T04:27:22.861Z,9.82
2022-10-11T04:29:50.059Z,7.53
2022-10-11T04:32:17.596Z,8.23
2022-10-11T04:34:44.815Z,13.90
2022-10-11T04:37:13.740Z,8.23
2022-10-11T04:39:41.115Z,6.80
2022-10-11T04:42:08.368Z,8.18
2022-10-11T04:44:35.610Z,9.45
2022-10-11T04:47:02.831Z,6.75
2022-10-11T04:49:30.047Z,6.47
2022-10-11T04:51:57.248Z,7.18
2022-10-11T04:54:24.510Z,7.45
2022-10-11T04:56:51.731Z,7.05
2022-10-11T04:59:19.179Z,10.27
2022-10-11T05:01:46.593Z,7.22
2022-10-11T05:04:13.977Z,7.25
2022-10-11T05:06:41.190Z,6.93
2022-10-11T05:09:08.512Z,8.02
2022-10-11T05:11:35.761Z,8.57
2022-10-11T05:14:02.943Z,7.28
2022-10-11T05:16:30.188Z,7.60
2022-10-11T05:18:57.721Z,7.82
2022-10-11T05:21:26.229Z,7.03
2022-10-11T05:23:55.132Z,7.95
2022-10-11T05:26:22.895Z,6.65
2022-10-11T05:28:50.774Z,8.02
2022-10-11T05:31:18.181Z,6.88
2022-10-11T05:33:45.916Z,5.80
2022-10-11T05:36:13.197Z,7.65
2022-10-11T05:38:40.945Z,7.90
2022-10-11T05:41:11.645Z,7.47
2022-10-11T05:43:39.025Z,9.57
2022-10-11T05:46:06.953Z,6.57
2022-10-11T05:48:34.837Z,8.70
2022-10-11T05:51:03.233Z,7.90
2022-10-11T05:53:30.542Z,7.80
2022-10-11T05:55:58.521Z,8.93
2022-10-11T05:58:25.856Z,8.13
2022-10-11T06:00:53.226Z,7.07
2022-10-11T06:03:21.096Z,7.18
2022-10-11T06:05:48.794Z,8.77
2022-10-11T06:08:17.935Z,7.40
2022-10-11T06:10:45.143Z,7.20
2022-10-11T06:13:12.346Z,7.70
2022-10-11T06:15:40.259Z,8.95
2022-10-11T06:18:07.717Z,8.98
2022-10-11T06:20:35.106Z,8.85
2022-10-11T06:23:02.394Z,11.98
2022-10-11T06:25:29.640Z,18.08
2022-10-11T06:27:56.984Z,12.35
2022-10-11T06:30:24.274Z,20.35
2022-10-11T06:32:59.010Z,13.50
2022-10-11T06:35:28.470Z,12.80
2022-10-11T06:37:55.669Z,11.13
2022-10-11T06:40:22.896Z,9.38
2022-10-11T06:42:50.336Z,13.73
2022-10-11T06:45:17.594Z,14.07
2022-10-11T06:47:44.777Z,8.45
2022-10-11T06:50:13.282Z,8.52
2022-10-11T06:52:40.489Z,7.57
2022-10-11T06:55:08.231Z,9.25
2022-10-11T06:57:35.423Z,11.95
2022-10-11T07:00:02.839Z,14.95
2022-10-11T07:02:30.010Z,9.15
2022-10-11T07:04:57.297Z,10.52
2022-10-11T07:07:24.616Z,12.55
2022-10-11T07:09:51.809Z,13.23
2022-10-11T07:12:19.079Z,8.50
2022-10-11T07:14:46.286Z,10.02
2022-10-11T07:17:13.475Z,12.38
2022-10-11T07:19:40.685Z,15.13
2022-10-11T07:22:08.047Z,12.27
2022-10-11T07:24:35.286Z,10.25
2022-10-11T07:27:03.254Z,12.90
2022-10-11T07:29:30.713Z,12.60
2022-10-11T07:31:58.208Z,9.85
2022-10-11T07:34:26.008Z,13.27
2022-10-11T07:36:53.386Z,12.13
2022-10-11T07:39:20.603Z,13.27
2022-10-11T07:41:48.017Z,13.02
2022-10-11T07:44:15.453Z,12.05
2022-10-11T07:46:42.786Z,12.95
2022-10-11T07:49:10.049Z,12.38
2022-10-11T07:51:37.340Z,10.63
2022-10-11T07:54:07.232Z,10.63
2022-10-11T07:56:37.118Z,13.60
2022-10-11T07:59:04.410Z,12.77
2022-10-11T08:01:31.997Z,16.92
2022-10-11T08:03:59.731Z,12.82
2022-10-11T08:06:31.150Z,12.88
2022-10-11T08:08:59.804Z,18.45
2022-10-11T08:11:28.666Z,15.60
2022-10-11T08:13:56.035Z,15.50
2022-10-11T08:16:23.241Z,14.68
2022-10-11T08:18:50.918Z,13.88
2022-10-11T08:21:19.113Z,12.88
2022-10-11T08:23:46.565Z,14.50
2022-10-11T08:26:14.339Z,18.50
2022-10-11T08:28:41.666Z,13.13
2022-10-11T08:31:12.270Z,15.65
2022-10-11T08:33:39.701Z,20.65
2022-10-11T08:36:07.977Z,15.05
2022-10-11T08:38:38.731Z,17.15
2022-10-11T08:41:21.077Z,21.90
2022-10-11T08:43:56.600Z,13.90
2022-10-11T08:46:26.379Z,15.68
2022-10-11T08:48:53.867Z,18.42
2022-10-11T08:52:00.128Z,16.67
2022-10-11T08:54:47.748Z,18.45
2022-10-11T08:57:20.111Z,15.63
2022-10-11T08:59:50.052Z,13.85
2022-10-11T09:02:24.865Z,14.80
2022-10-11T09:04:52.792Z,14.65
2022-10-11T09:07:20.003Z,17.48
2022-10-11T09:10:03.954Z,21.58
2022-10-11T09:12:49.685Z,14.07
2022-10-11T09:15:41.640Z,11.77
2022-10-11T09:18:12.436Z,14.70
2022-10-11T09:20:44.736Z,12.45
2022-10-11T09:23:18.138Z,16.73
2022-10-11T09:25:52.797Z,18.02
2022-10-11T09:28:24.624Z,21.95
2022-10-11T09:33:21.670Z,18.73
2022-10-11T09:35:50.579Z,27.00
2022-10-11T09:38:47.052Z,18.75
2022-10-11T09:41:22.677Z,18.80
2022-10-11T09:43:51.372Z,20.48
2022-10-11T09:46:27.569Z,20.25
2022-10-11T09:48:55.822Z,25.48
2022-10-11T09:51:25.042Z,28.17
2022-10-11T09:53:54.506Z,29.00
2022-10-11T09:56:22.540Z,37.78
2022-10-11T09:58:49.976Z,31.20
2022-10-11T10:01:24.140Z,37.22
2022-10-11T10:04:04.644Z,31.75
2022-10-11T10:06:31.868Z,32.65
2022-10-11T10:09:37.963Z,30.92
2022-10-11T10:12:12.380Z,25.52
2022-10-11T10:14:41.837Z,27.52
2022-10-11T10:17:18.167Z,31.08
2022-10-11T10:19:53.077Z,28.90
2022-10-11T10:22:25.402Z,29.48
2022-10-11T10:24:52.938Z,26.95
2022-10-11T10:27:26.859Z,24.17
2022-10-11T10:30:13.185Z,33.42
2022-10-11T10:32:50.090Z,23.02
2022-10-11T10:35:36.161Z,22.08
2022-10-11T10:38:03.389Z,23.17
2022-10-11T10:40:36.637Z,24.05
2022-10-11T10:43:04.206Z,21.05
2022-10-11T10:45:54.432Z,22.73
2022-10-11T10:49:12.053Z,22.20
2022-10-11T10:51:42.791Z,20.92
2022-10-11T10:54:16.144Z,25.70
2022-10-11T10:57:03.681Z,25.35
2022-10-11T10:59:33.941Z,19.23
2022-10-11T11:02:28.172Z,17.35
2022-10-11T11:05:05.387Z,24.90
2022-10-11T11:07:44.447Z,19.50
2022-10-11T11:10:16.387Z,19.70
2022-10-11T11:12:47.943Z,24.02
2022-10-11T11:15:32.020Z,18.20
2022-10-11T11:18:07.326Z,17.90
2022-10-11T11:20:43.835Z,17.02
2022-10-11T11:23:28.124Z,16.98
2022-10-11T11:26:19.258Z,18.52
2022-10-11T11:28:55.727Z,17.93
2022-10-11T11:31:29.260Z,18.13
2022-10-11T11:33:56.532Z,16.33
2022-10-11T11:36:36.653Z,16.30
2022-10-11T11:39:05.863Z,19.35
2022-10-11T11:41:42.772Z,16.13
2022-10-11T11:44:27.630Z,15.38
2022-10-11T11:46:58.067Z,17.17
2022-10-11T11:49:36.287Z,16.40
2022-10-11T11:52:07.620Z,17.33
2022-10-11T11:54:58.085Z,21.50
2022-10-11T11:57:32.808Z,15.25
2022-10-11T12:00:04.584Z,17.40
2022-10-11T12:02:48.203Z,17.48
2022-10-11T12:05:17.474Z,16.50
2022-10-11T12:07:52.643Z,17.20
2022-10-11T12:10:40.168Z,17.30
2022-10-11T12:13:10.579Z,17.92
2022-10-11T12:15:38.316Z,20.25
2022-10-11T12:18:13.710Z,23.55
2022-10-11T12:20:41.722Z,20.65
2022-10-11T12:23:27.712Z,21.40
2022-10-11T12:26:13.662Z,18.55
2022-10-11T12:28:43.760Z,14.95
2022-10-11T12:31:39.414Z,16.20
2022-10-11T12:34:09.668Z,19.45
2022-10-11T12:36:37.125Z,24.25
2022-10-11T12:39:19.606Z,18.60
2022-10-11T12:41:50.184Z,21.90
2022-10-11T12:44:25.110Z,19.27
2022-10-11T12:46:53.619Z,19.35
2022-10-11T12:49:32.888Z,21.77
2022-10-11T12:52:00.146Z,16.67
2022-10-11T12:54:39.731Z,18.17
2022-10-11T12:57:12.350Z,18.42
2022-10-11T12:59:43.130Z,18.17
2022-10-11T13:02:24.831Z,20.23
2022-10-11T13:04:52.145Z,17.83
2022-10-11T13:07:23.418Z,18.27
2022-10-11T13:09:53.906Z,18.15
2022-10-11T13:12:23.235Z,16.23
2022-10-11T13:15:09.705Z,19.85
2022-10-11T13:17:38.969Z,18.48
2022-10-11T13:20:09.646Z,19.77
2022-10-11T13:22:39.375Z,15.90
2022-10-11T13:25:07.302Z,18.35
2022-10-11T13:27:34.510Z,16.90
2022-10-11T13:30:02.703Z,15.10
2022-10-11T13:32:31.534Z,16.10
2022-10-11T13:35:03.295Z,14.10
2022-10-11T13:39:58.077Z,14.75
2022-10-11T13:42:29.706Z,18.27
2022-10-11T13:44:57.106Z,18.05
2022-10-11T13:47:26.895Z,14.43
2022-10-11T13:50:13.044Z,14.73
2022-10-11T13:53:09.825Z,15.75
2022-10-11T13:55:37.086Z,17.60
2022-10-11T13:58:11.973Z,14.70
2022-10-11T14:00:52.681Z,13.77
2022-10-11T14:03:21.235Z,21.55
2022-10-11T14:05:58.565Z,16.67
2022-10-11T14:08:30.352Z,13.30
2022-10-11T14:13:33.714Z,12.80
2022-10-11T14:16:00.896Z,13.90
2022-10-11T14:18:43.331Z,15.57
2022-10-11T14:21:20.459Z,14.02
2022-10-11T14:23:48.229Z,13.15
2022-10-11T14:26:18.655Z,11.73
2022-10-11T14:28:46.592Z,22.35
2022-10-11T14:31:13.859Z,11.45
2022-10-11T14:33:41.092Z,11.32
2022-10-11T14:36:08.843Z,15.18
2022-10-11T14:38:38.960Z,11.07
2022-10-11T14:41:06.221Z,14.77
2022-10-11T14:43:33.468Z,13.02
2022-10-11T14:46:00.744Z,15.27
2022-10-11T14:48:50.438Z,16.23
2022-10-11T14:51:16.542Z,11.30
2022-10-11T14:53:46.395Z,11.70
2022-10-11T14:56:18.943Z,12.32
2022-10-11T14:58:48.477Z,14.35
2022-10-11T15:01:16.510Z,11.35
2022-10-11T15:03:44.044Z,12.25
2022-10-11T15:06:16.832Z,9.95
2022-10-11T15:08:44.117Z,15.70
2022-10-11T15:11:12.266Z,10.95
2022-10-11T15:13:39.499Z,16.48
2022-10-11T15:16:07.592Z,22.20
2022-10-11T15:18:34.988Z,22.98
2022-10-11T15:21:02.295Z,28.13
2022-10-11T15:23:30.122Z,16.20
2022-10-11T15:25:57.361Z,17.65
2022-10-11T15:28:27.303Z,15.00
2022-10-11T15:30:55.478Z,11.35
2022-10-11T15:33:23.158Z,13.75
2022-10-11T15:35:50.511Z,14.60
2022-10-11T15:38:19.076Z,15.50
2022-10-11T15:40:46.688Z,9.88
2022-10-11T15:43:14.345Z,12.57
2022-10-11T15:45:41.898Z,13.35
2022-10-11T15:48:09.381Z,10.82
2022-10-11T15:50:37.409Z,10.23
2022-10-11T15:53:05.846Z,17.98
2022-10-11T15:55:33.944Z,13.35
2022-10-11T15:58:02.865Z,15.05
2022-10-11T16:00:30.822Z,16.58
2022-10-11T16:02:58.847Z,11.65
2022-10-11T16:05:27.675Z,23.75
2022-10-11T16:07:55.234Z,15.13
2022-10-11T16:10:22.747Z,13.68
2022-10-11T16:12:50.096Z,20.55
2022-10-11T16:15:17.418Z,12.43
2022-10-11T16:17:46.380Z,15.23
2022-10-11T16:20:14.118Z,12.90
2022-10-11T16:22:41.424Z,15.07
2022-10-11T16:25:08.723Z,9.88
2022-10-11T16:27:35.957Z,15.90
2022-10-11T16:30:03.339Z,12.80
2022-10-11T16:32:32.353Z,18.60
2022-10-11T16:34:59.605Z,11.70
2022-10-11T16:37:27.073Z,15.30
2022-10-11T16:39:54.286Z,13.75
2022-10-11T16:42:21.493Z,13.07
2022-10-11T16:44:48.727Z,16.67
2022-10-11T16:47:16.625Z,13.57
2022-10-11T16:49:43.981Z,11.93
2022-10-11T16:52:13.878Z,13.43
2022-10-11T16:54:44.866Z,14.40
2022-10-11T16:57:13.297Z,17.80
2022-10-11T16:59:40.543Z,14.63
2022-10-11T17:02:09.776Z,14.75
2022-10-11T17:04:36.971Z,14.68
2022-10-11T17:07:04.272Z,13.25
2022-10-11T17:09:31.504Z,13.88
2022-10-11T17:11:58.681Z,12.48
2022-10-11T17:14:25.953Z,17.05
2022-10-11T17:16:53.195Z,16.92
2022-10-11T17:19:20.382Z,17.02
2022-10-11T17:21:47.613Z,14.95
2022-10-11T17:24:14.852Z,12.82
2022-10-11T17:26:42.084Z,13.75
2022-10-11T17:29:13.565Z,16.33
2022-10-11T17:31:48.134Z,14.70
2022-10-11T17:34:17.355Z,15.07
2022-10-11T17:36:52.038Z,15.88
2022-10-11T17:39:20.762Z,21.25
2022-10-11T17:41:48.020Z,14.57
2022-10-11T17:44:17.948Z,14.77
2022-10-11T17:46:45.439Z,19.77
2022-10-11T17:49:13.078Z,13.85
2022-10-11T17:51:41.218Z,19.85
2022-10-11T17:54:12.526Z,19.77
2022-10-11T17:56:40.708Z,15.75
2022-10-11T17:59:08.617Z,16.92
2022-10-11T18:01:36.004Z,16.42
2022-10-11T18:04:04.635Z,20.40
2022-10-11T18:06:32.934Z,23.55
2022-10-11T18:09:01.845Z,23.60
2022-10-11T18:11:29.249Z,25.83
2022-10-11T18:13:56.538Z,31.83
2022-10-11T18:16:26.856Z,22.67
2022-10-11T18:18:54.689Z,24.90
2022-10-11T18:21:21.991Z,26.65
2022-10-11T18:23:49.269Z,19.63
2022-10-11T18:26:17.954Z,16.77
2022-10-11T18:28:45.531Z,19.42
2022-10-11T18:31:20.039Z,21.70
2022-10-11T18:33:47.633Z,15.38
2022-10-11T18:36:16.340Z,20.52
2022-10-11T18:38:46.457Z,16.13
2022-10-11T18:41:15.164Z,17.92
2022-10-11T18:43:42.389Z,19.40
2022-10-11T18:46:11.172Z,14.23
2022-10-11T18:48:42.060Z,14.25
2022-10-11T18:51:12.356Z,11.57
2022-10-11T18:53:39.904Z,16.00
2022-10-11T18:56:08.443Z,11.55
2022-10-11T18:58:36.428Z,16.05
2022-10-11T19:01:07.795Z,13.85
2022-10-11T19:03:35.653Z,14.80
2022-10-11T19:06:07.430Z,16.83
2022-10-11T19:08:34.967Z,16.25
2022-10-11T19:11:06.406Z,21.00
2022-10-11T19:13:34.056Z,12.35
2022-10-11T19:16:09.076Z,21.20
2022-10-11T19:18:40.443Z,17.25
2022-10-11T19:21:12.871Z,13.57
2022-10-11T19:23:41.051Z,13.85
2022-10-11T19:26:09.593Z,16.30
2022-10-11T19:28:37.009Z,13.27
2022-10-11T19:31:09.584Z,14.75
2022-10-11T19:33:37.131Z,13.98
2022-10-11T19:36:05.272Z,10.73
2022-10-11T19:38:33.525Z,14.75
2022-10-11T19:41:01.259Z,12.32
2022-10-11T19:43:28.461Z,10.10
2022-10-11T19:46:05.902Z,11.50
2022-10-11T19:48:33.573Z,18.15
2022-10-11T19:51:05.296Z,9.43
2022-10-11T19:53:32.833Z,13.70
2022-10-11T19:56:04.407Z,9.20
2022-10-11T19:58:31.765Z,13.18
2022-10-11T20:01:02.088Z,13.52
2022-10-11T20:03:29.415Z,11.98
2022-10-11T20:05:59.042Z,9.68
2022-10-11T20:08:26.280Z,12.88
2022-10-11T20:10:54.039Z,17.10
2022-10-11T20:13:21.649Z,10.48
2022-10-11T20:15:48.865Z,13.80
2022-10-11T20:18:16.096Z,10.02
2022-10-11T20:20:52.906Z,9.02
2022-10-11T20:23:23.738Z,10.10
2022-10-11T20:26:05.080Z,10.23
2022-10-11T20:28:33.410Z,9.05
2022-10-11T20:31:01.328Z,12.27
2022-10-11T20:33:32.345Z,15.13
2022-10-11T20:36:00.852Z,9.48
2022-10-11T20:38:29.332Z,10.25
2022-10-11T20:40:56.895Z,9.30
2022-10-11T20:43:24.187Z,10.07
2022-10-11T20:46:01.900Z,12.77
2022-10-11T20:48:29.884Z,12.20
2022-10-11T20:50:57.384Z,15.18
2022-10-11T20:53:25.035Z,8.68
2022-10-11T20:55:52.656Z,9.73
2022-10-11T20:58:20.254Z,12.45
2022-10-11T21:00:47.745Z,7.75
2022-10-11T21:03:15.110Z,8.10
2022-10-11T21:05:42.712Z,8.68
2022-10-11T21:08:10.190Z,7.70
2022-10-11T21:10:37.688Z,8.82
2022-10-11T21:13:04.922Z,8.20
2022-10-11T21:15:32.896Z,7.22
2022-10-11T21:18:00.168Z,9.60
2022-10-11T21:20:27.396Z,9.95
2022-10-11T21:22:54.615Z,7.30
2022-10-11T21:25:21.871Z,14.38
2022-10-11T21:27:49.202Z,10.73
2022-10-11T21:30:16.424Z,6.63
2022-10-11T21:32:43.702Z,6.18
2022-10-11T21:35:11.452Z,8.57
2022-10-11T21:37:38.718Z,14.07
2022-10-11T21:40:06.201Z,9.55
2022-10-11T21:42:33.420Z,9.48
2022-10-11T21:45:00.706Z,10.80
2022-10-11T21:47:28.004Z,8.52
2022-10-11T21:49:55.199Z,7.40
2022-10-11T21:52:22.715Z,9.27
2022-10-11T21:54:49.937Z,12.50
2022-10-11T21:57:17.152Z,7.72
2022-10-11T21:59:44.409Z,9.25
2022-10-11T22:02:11.723Z,7.13
2022-10-11T22:04:39.045Z,8.63
2022-10-11T22:07:06.315Z,12.45
2022-10-11T22:09:36.692Z,14.55
2022-10-11T22:12:04.664Z,8.32
2022-10-11T22:14:31.843Z,8.52
2022-10-11T22:16:59.123Z,8.43
2022-10-11T22:19:26.308Z,8.57
2022-10-11T22:21:53.614Z,9.32
2022-10-11T22:24:20.799Z,17.17
2022-10-11T22:26:48.031Z,10.80
2022-10-11T22:29:15.255Z,10.27
2022-10-11T22:31:42.588Z,10.45
2022-10-11T22:34:09.768Z,16.05
2022-10-11T22:36:37.512Z,12.00
2022-10-11T22:39:07.931Z,9.85
2022-10-11T22:41:35.862Z,14.48
2022-10-11T22:44:03.092Z,7.00
2022-10-11T22:46:30.704Z,5.93
2022-10-11T22:48:57.875Z,7.03
2022-10-11T22:51:25.096Z,11.10
2022-10-11T22:53:52.315Z,10.15
2022-10-11T22:56:19.556Z,5.75
2022-10-11T22:58:46.834Z,7.55
2022-10-11T23:01:15.875Z,5.18
2022-10-11T23:03:43.346Z,8.05
2022-10-11T23:06:10.690Z,12.23
2022-10-11T23:08:37.897Z,10.15
2022-10-11T23:11:06.225Z,9.00
2022-10-11T23:13:33.388Z,12.25
2022-10-11T23:16:00.671Z,10.82
2022-10-11T23:18:27.902Z,8.63
2022-10-11T23:20:55.225Z,7.82
2022-10-11T23:23:22.465Z,10.35
2022-10-11T23:25:49.708Z,13.85
2022-10-11T23:28:16.901Z,10.75
2022-10-11T23:30:44.159Z,7.03
2022-10-11T23:33:11.392Z,7.93
2022-10-11T23:35:38.591Z,5.80
2022-10-11T23:38:05.788Z,10.20
2022-10-11T23:40:32.963Z,10.05
2022-10-11T23:43:00.141Z,8.13
2022-10-11T23:45:27.824Z,7.63
2022-10-11T23:47:55.080Z,12.63
2022-10-11T23:50:22.302Z,9.63
2022-10-11T23:52:49.536Z,10.50
2022-10-11T23:55:16.784Z,12.88
2022-10-11T23:57:44.286Z,12.05
